createdAt,value
2018-05-16T00:00:11.315Z,11.70
2018-05-16T00:02:45.859Z,10.80
2018-05-16T00:05:14.021Z,11.10
2018-05-16T00:07:57.953Z,12.00
2018-05-16T00:10:28.789Z,11.50
2018-05-16T00:12:57.050Z,11.53
2018-05-16T00:15:26.888Z,12.40
2018-05-16T00:17:55.144Z,12.17
2018-05-16T00:20:38.343Z,13.13
2018-05-16T00:23:06.500Z,13.87
2018-05-16T00:25:34.903Z,14.50
2018-05-16T00:28:03.024Z,14.90
2018-05-16T00:30:32.367Z,15.77
2018-05-16T00:33:00.472Z,15.83
2018-05-16T00:35:28.597Z,17.57
2018-05-16T00:37:56.722Z,17.63
2018-05-16T00:40:26.613Z,17.00
2018-05-16T00:42:54.886Z,18.60
2018-05-16T00:45:23.821Z,18.70
2018-05-16T00:47:52.873Z,20.17
2018-05-16T00:50:21.110Z,20.17
2018-05-16T00:52:50.335Z,20.43
2018-05-16T00:55:18.463Z,21.47
2018-05-16T00:57:47.513Z,22.27
2018-05-16T01:00:15.645Z,22.13
2018-05-16T01:02:43.880Z,22.03
2018-05-16T01:05:13.617Z,23.23
2018-05-16T01:07:42.512Z,23.97
2018-05-16T01:10:11.386Z,23.70
2018-05-16T01:12:41.407Z,24.87
2018-05-16T01:15:10.457Z,27.00
2018-05-16T01:17:38.592Z,25.90
2018-05-16T01:20:06.780Z,29.87
2018-05-16T01:22:34.942Z,28.40
2018-05-16T01:25:03.056Z,28.83
2018-05-16T01:27:31.293Z,30.47
2018-05-16T01:29:59.584Z,31.63
2018-05-16T01:32:28.476Z,31.60
2018-05-16T01:34:56.590Z,33.80
2018-05-16T01:37:24.715Z,33.33
2018-05-16T01:39:55.588Z,34.97
2018-05-16T01:42:24.274Z,34.00
2018-05-16T01:44:52.403Z,34.33
2018-05-16T01:47:20.644Z,35.23
2018-05-16T01:49:48.760Z,36.67
2018-05-16T01:52:16.899Z,36.70
2018-05-16T01:54:45.872Z,37.83
2018-05-16T01:57:13.983Z,38.47
2018-05-16T01:59:43.116Z,39.97
2018-05-16T02:02:11.982Z,41.63
2018-05-16T02:04:40.141Z,41.63
2018-05-16T02:07:09.042Z,41.53
2018-05-16T02:09:37.281Z,45.23
2018-05-16T02:12:07.684Z,44.60
2018-05-16T02:14:37.309Z,45.57
2018-05-16T02:17:05.545Z,44.83
2018-05-16T02:19:33.797Z,45.17
2018-05-16T02:22:01.924Z,47.83
2018-05-16T02:24:30.039Z,47.40
2018-05-16T02:26:58.179Z,48.00
2018-05-16T02:29:30.655Z,48.20
2018-05-16T02:31:59.489Z,47.60
2018-05-16T02:34:30.267Z,49.00
2018-05-16T02:36:58.367Z,51.73
2018-05-16T02:39:27.262Z,52.70
2018-05-16T02:41:56.147Z,52.67
2018-05-16T02:44:25.043Z,53.57
2018-05-16T02:46:54.304Z,55.20
2018-05-16T02:49:22.447Z,57.77
2018-05-16T02:51:50.587Z,59.57
2018-05-16T02:54:19.246Z,62.27
2018-05-16T02:56:47.293Z,61.13
2018-05-16T02:59:15.406Z,65.70
2018-05-16T03:01:43.692Z,66.87
2018-05-16T03:04:11.823Z,67.93
2018-05-16T03:06:39.977Z,64.93
2018-05-16T03:09:09.741Z,74.60
2018-05-16T03:11:37.857Z,73.10
2018-05-16T03:14:06.056Z,77.93
2018-05-16T03:16:34.177Z,79.50
2018-05-16T03:19:03.067Z,81.70
2018-05-16T03:21:31.954Z,82.63
2018-05-16T03:24:00.830Z,83.70
2018-05-16T03:26:30.229Z,85.57
2018-05-16T03:28:58.496Z,83.07
2018-05-16T03:31:26.593Z,90.43
2018-05-16T03:33:55.519Z,86.67
2018-05-16T03:36:23.682Z,91.77
2018-05-16T03:38:53.653Z,88.87
2018-05-16T03:41:23.349Z,95.80
2018-05-16T03:43:51.556Z,92.47
2018-05-16T03:46:20.560Z,95.30
2018-05-16T03:48:49.462Z,96.87
2018-05-16T03:51:17.590Z,102.77
2018-05-16T03:53:45.714Z,103.80
2018-05-16T03:56:13.851Z,104.63
2018-05-16T03:58:53.868Z,105.77
2018-05-16T04:01:47.834Z,105.73
2018-05-16T04:04:16.743Z,111.67
2018-05-16T04:06:44.869Z,113.03
2018-05-16T04:09:13.213Z,115.87
2018-05-16T04:11:41.338Z,113.87
2018-05-16T04:14:09.952Z,112.77
2018-05-16T04:16:38.103Z,117.47
2018-05-16T04:19:06.227Z,117.87
2018-05-16T04:21:35.416Z,109.50
2018-05-16T04:24:03.574Z,115.10
2018-05-16T04:26:33.998Z,117.00
2018-05-16T04:29:02.933Z,115.70
2018-05-16T04:31:31.101Z,113.20
2018-05-16T04:33:59.993Z,113.17
2018-05-16T04:36:29.037Z,112.40
2018-05-16T04:38:57.150Z,106.27
2018-05-16T04:41:26.648Z,103.97
2018-05-16T04:43:56.484Z,104.23
2018-05-16T04:46:25.382Z,100.10
2018-05-16T04:48:53.553Z,102.90
2018-05-16T04:51:22.550Z,95.93
2018-05-16T04:53:51.606Z,97.43
2018-05-16T04:56:19.797Z,93.50
2018-05-16T04:58:49.249Z,93.20
2018-05-16T05:01:17.352Z,95.47
2018-05-16T05:03:46.998Z,93.30
2018-05-16T05:06:15.906Z,88.10
2018-05-16T05:08:44.019Z,91.00
2018-05-16T05:11:12.133Z,89.77
2018-05-16T05:13:41.024Z,91.03
2018-05-16T05:16:09.189Z,89.37
2018-05-16T05:18:38.141Z,85.57
2018-05-16T05:21:06.971Z,86.63
2018-05-16T05:23:35.154Z,84.97
2018-05-16T05:26:04.036Z,85.67
2018-05-16T05:28:32.918Z,78.13
2018-05-16T05:31:01.815Z,83.03
2018-05-16T05:33:31.170Z,79.03
2018-05-16T05:35:59.295Z,73.33
2018-05-16T05:38:29.526Z,76.23
2018-05-16T05:40:58.581Z,75.43
2018-05-16T05:43:27.516Z,72.70
2018-05-16T05:45:56.284Z,68.13
2018-05-16T05:48:24.569Z,74.03
2018-05-16T05:50:53.472Z,72.00
2018-05-16T05:53:22.338Z,66.00
2018-05-16T05:55:50.574Z,61.97
2018-05-16T05:58:18.700Z,60.33
2018-05-16T06:00:47.612Z,60.97
2018-05-16T06:03:15.754Z,61.57
2018-05-16T06:05:44.655Z,62.50
2018-05-16T06:08:13.529Z,59.67
2018-05-16T06:10:41.765Z,63.17
2018-05-16T06:13:10.523Z,63.97
2018-05-16T06:15:38.640Z,64.77
2018-05-16T06:18:06.909Z,66.03
2018-05-16T06:20:35.058Z,67.67
2018-05-16T06:23:03.162Z,66.03
2018-05-16T06:25:31.278Z,64.07
2018-05-16T06:28:00.168Z,64.67
2018-05-16T06:30:28.418Z,62.93
2018-05-16T06:32:59.093Z,59.17
2018-05-16T06:35:27.239Z,62.07
2018-05-16T06:37:56.410Z,59.57
2018-05-16T06:40:28.322Z,54.70
2018-05-16T06:42:56.452Z,57.57
2018-05-16T06:45:26.086Z,55.07
2018-05-16T06:47:55.547Z,54.03
2018-05-16T06:50:24.077Z,56.30
2018-05-16T06:52:52.950Z,52.77
2018-05-16T06:55:22.953Z,52.20
2018-05-16T06:57:51.173Z,51.23
2018-05-16T07:00:19.436Z,48.40
2018-05-16T07:02:48.299Z,46.83
2018-05-16T07:05:16.913Z,47.20
2018-05-16T07:07:45.797Z,45.57
2018-05-16T07:10:14.685Z,44.87
2018-05-16T07:12:43.584Z,42.63
2018-05-16T07:15:12.473Z,42.07
2018-05-16T07:17:41.364Z,39.57
2018-05-16T07:20:11.643Z,41.20
2018-05-16T07:22:39.790Z,40.97
2018-05-16T07:25:07.934Z,38.13
2018-05-16T07:27:36.066Z,38.60
2018-05-16T07:30:04.187Z,38.80
2018-05-16T07:32:32.425Z,40.10
2018-05-16T07:35:00.204Z,38.40
2018-05-16T07:37:28.330Z,38.87
2018-05-16T07:39:57.675Z,36.77
2018-05-16T07:42:25.819Z,36.27
2018-05-16T07:44:54.326Z,34.73
2018-05-16T07:47:22.435Z,32.93
2018-05-16T07:49:50.564Z,31.73
2018-05-16T07:52:18.928Z,30.43
2018-05-16T07:54:47.250Z,27.60
2018-05-16T07:57:15.408Z,27.10
2018-05-16T07:59:43.600Z,28.03
2018-05-16T08:02:11.745Z,28.63
2018-05-16T08:04:39.868Z,27.73
2018-05-16T08:07:07.980Z,26.47
2018-05-16T08:09:36.110Z,26.77
2018-05-16T08:12:04.453Z,26.03
2018-05-16T08:14:32.577Z,25.67
2018-05-16T08:17:00.700Z,25.27
2018-05-16T08:19:30.339Z,25.33
2018-05-16T08:21:58.499Z,24.60
2018-05-16T08:24:26.742Z,25.87
2018-05-16T08:26:54.935Z,24.90
2018-05-16T08:29:23.812Z,22.83
2018-05-16T08:31:52.901Z,23.10
2018-05-16T08:34:21.046Z,22.70
2018-05-16T08:36:49.218Z,21.47
2018-05-16T08:39:18.469Z,22.03
2018-05-16T08:41:46.645Z,21.50
2018-05-16T08:44:15.585Z,20.43
2018-05-16T08:46:43.719Z,18.90
2018-05-16T08:49:12.705Z,19.33
2018-05-16T08:51:41.587Z,17.13
2018-05-16T08:54:09.749Z,17.37
2018-05-16T08:56:37.877Z,17.77
2018-05-16T08:59:06.089Z,17.70
2018-05-16T09:01:34.297Z,17.70
2018-05-16T09:04:04.698Z,17.47
2018-05-16T09:06:32.873Z,16.93
2018-05-16T09:09:02.485Z,17.37
2018-05-16T09:11:30.748Z,16.80
2018-05-16T09:13:58.870Z,17.30
2018-05-16T09:16:28.364Z,17.97
2018-05-16T09:18:58.156Z,17.33
2018-05-16T09:21:26.342Z,17.13
2018-05-16T09:23:55.232Z,16.40
2018-05-16T09:26:24.121Z,15.17
2018-05-16T09:28:52.996Z,13.13
2018-05-16T09:31:21.881Z,13.60
2018-05-16T09:33:50.488Z,12.80
2018-05-16T09:36:20.985Z,10.90
2018-05-16T09:38:50.607Z,11.70
2018-05-16T09:41:20.714Z,11.20
2018-05-16T09:43:49.240Z,10.77
2018-05-16T09:46:20.351Z,11.13
2018-05-16T09:48:48.469Z,12.30
2018-05-16T09:51:16.805Z,11.30
2018-05-16T09:53:44.925Z,10.00
2018-05-16T09:56:13.184Z,10.97
2018-05-16T09:58:42.182Z,11.30
2018-05-16T10:01:12.000Z,10.50
2018-05-16T10:03:40.115Z,10.50
2018-05-16T10:06:08.219Z,10.37
2018-05-16T10:08:37.104Z,9.77
2018-05-16T10:11:05.998Z,10.10
2018-05-16T10:13:34.868Z,11.20
2018-05-16T10:16:03.772Z,9.63
2018-05-16T10:18:32.652Z,10.67
2018-05-16T10:21:00.762Z,9.70
2018-05-16T10:26:04.930Z,9.93
2018-05-16T10:28:33.129Z,10.33
2018-05-16T10:31:01.370Z,10.03
2018-05-16T10:33:29.639Z,9.90
2018-05-16T10:35:57.762Z,10.43
2018-05-16T10:38:27.384Z,9.63
2018-05-16T10:40:56.378Z,10.10
2018-05-16T10:43:25.257Z,8.63
2018-05-16T10:45:54.138Z,8.90
2018-05-16T10:48:22.740Z,7.63
2018-05-16T10:50:50.937Z,8.63
2018-05-16T10:53:19.028Z,7.50
2018-05-16T10:55:47.367Z,8.43
2018-05-16T10:58:15.481Z,7.80
2018-05-16T11:00:43.575Z,7.60
2018-05-16T11:03:12.671Z,7.30
2018-05-16T11:05:41.710Z,7.37
2018-05-16T11:08:09.952Z,7.23
2018-05-16T11:10:38.062Z,7.33
2018-05-16T11:13:06.176Z,7.83
2018-05-16T11:15:34.277Z,7.33
2018-05-16T11:18:02.399Z,7.20
2018-05-16T11:20:30.527Z,7.10
2018-05-16T11:22:59.708Z,7.43
2018-05-16T11:25:29.767Z,6.63
2018-05-16T11:27:58.655Z,6.80
2018-05-16T11:30:27.521Z,6.50
2018-05-16T11:32:56.115Z,6.60
2018-05-16T11:35:24.998Z,7.10
2018-05-16T11:37:54.502Z,7.30
2018-05-16T11:40:23.372Z,8.00
2018-05-16T11:42:51.473Z,7.27
2018-05-16T11:45:20.462Z,8.10
2018-05-16T11:47:49.363Z,8.53
2018-05-16T11:50:18.247Z,8.07
2018-05-16T11:52:47.130Z,7.83
2018-05-16T11:55:15.235Z,6.97
2018-05-16T11:57:43.335Z,6.67
2018-05-16T12:00:11.444Z,6.47
2018-05-16T12:02:39.570Z,6.37
2018-05-16T12:05:07.686Z,6.77
2018-05-16T12:07:36.511Z,6.53
2018-05-16T12:10:05.453Z,5.87
2018-05-16T12:12:33.571Z,6.53
2018-05-16T12:15:01.726Z,6.50
2018-05-16T12:17:31.077Z,5.70
2018-05-16T12:19:59.279Z,5.83
2018-05-16T12:22:27.399Z,6.30
2018-05-16T12:24:56.268Z,6.80
2018-05-16T12:27:26.496Z,6.97
2018-05-16T12:29:55.377Z,6.77
2018-05-16T12:32:25.520Z,6.23
2018-05-16T12:34:54.693Z,5.97
2018-05-16T12:37:23.522Z,6.47
2018-05-16T12:39:51.648Z,5.93
2018-05-16T12:42:20.359Z,6.17
2018-05-16T12:44:48.511Z,5.87
2018-05-16T12:47:16.617Z,7.53
2018-05-16T12:49:46.376Z,6.60
2018-05-16T12:52:15.553Z,6.77
2018-05-16T12:54:43.563Z,6.73
2018-05-16T12:57:14.447Z,7.27
2018-05-16T12:59:44.005Z,7.90
2018-05-16T13:02:12.362Z,7.57
2018-05-16T13:04:40.464Z,8.10
2018-05-16T13:07:09.980Z,8.17
2018-05-16T13:09:38.052Z,8.27
2018-05-16T13:12:07.468Z,8.53
2018-05-16T13:14:35.987Z,9.17
2018-05-16T13:17:04.882Z,8.30
2018-05-16T13:19:34.101Z,7.80
2018-05-16T13:22:03.919Z,7.80
2018-05-16T13:24:32.850Z,7.53
2018-05-16T13:27:01.181Z,7.40
2018-05-16T13:29:29.324Z,7.80
2018-05-16T13:31:57.636Z,7.20
2018-05-16T13:34:25.770Z,9.33
2018-05-16T13:36:53.871Z,12.20
2018-05-16T13:39:22.020Z,12.43
2018-05-16T13:41:50.147Z,13.27
2018-05-16T13:44:19.022Z,13.87
2018-05-16T13:46:48.818Z,14.27
2018-05-16T13:49:17.001Z,14.30
2018-05-16T13:51:45.277Z,14.63
2018-05-16T13:54:13.851Z,13.53
2018-05-16T13:56:43.272Z,15.00
2018-05-16T13:59:12.014Z,14.90
2018-05-16T14:01:40.159Z,14.73
2018-05-16T14:04:09.783Z,15.83
2018-05-16T14:06:37.912Z,14.47
2018-05-16T14:09:06.791Z,15.87
2018-05-16T14:11:34.935Z,15.50
2018-05-16T14:14:03.244Z,15.47
2018-05-16T14:16:31.445Z,15.53
2018-05-16T14:18:59.571Z,16.20
2018-05-16T14:21:27.690Z,16.00
2018-05-16T14:23:56.591Z,17.13
2018-05-16T14:26:24.686Z,19.50
2018-05-16T14:28:52.803Z,20.43
2018-05-16T14:31:20.917Z,22.70
2018-05-16T14:33:49.254Z,23.37
2018-05-16T14:36:17.550Z,24.60
2018-05-16T14:38:46.611Z,24.43
2018-05-16T14:41:14.825Z,23.33
2018-05-16T14:43:43.104Z,21.73
2018-05-16T14:46:11.968Z,21.53
2018-05-16T14:48:40.854Z,22.47
2018-05-16T14:51:10.279Z,21.20
2018-05-16T14:53:39.152Z,20.47
2018-05-16T14:56:08.048Z,20.90
2018-05-16T14:58:36.978Z,18.83
2018-05-16T15:01:05.938Z,18.97
2018-05-16T15:03:35.331Z,17.90
2018-05-16T15:06:03.432Z,17.47
2018-05-16T15:08:31.678Z,16.23
2018-05-16T15:11:00.574Z,16.13
2018-05-16T15:13:29.447Z,16.57
2018-05-16T15:15:57.636Z,15.40
2018-05-16T15:18:25.971Z,14.77
2018-05-16T15:20:54.128Z,13.97
2018-05-16T15:23:22.451Z,14.00
2018-05-16T15:25:50.635Z,13.60
2018-05-16T15:28:18.932Z,13.37
2018-05-16T15:30:49.091Z,13.37
2018-05-16T15:33:18.020Z,13.13
2018-05-16T15:35:47.859Z,13.70
2018-05-16T15:38:16.941Z,12.70
2018-05-16T15:40:45.152Z,13.40
2018-05-16T15:43:13.332Z,13.23
2018-05-16T15:45:41.451Z,12.97
2018-05-16T15:48:09.754Z,13.07
2018-05-16T15:50:38.627Z,12.57
2018-05-16T15:53:07.515Z,12.77
2018-05-16T15:55:35.748Z,12.80
2018-05-16T15:58:03.862Z,12.27
2018-05-16T16:00:33.035Z,11.93
2018-05-16T16:03:02.542Z,12.23
2018-05-16T16:05:31.443Z,11.80
2018-05-16T16:08:01.094Z,11.97
2018-05-16T16:10:29.960Z,11.30
2018-05-16T16:12:58.847Z,12.82
2018-05-16T16:15:29.280Z,11.70
2018-05-16T16:17:58.175Z,12.57
2018-05-16T16:20:26.638Z,11.70
2018-05-16T16:22:56.250Z,11.37
2018-05-16T16:25:25.301Z,11.33
2018-05-16T16:27:53.551Z,10.57
2018-05-16T16:30:23.422Z,11.43
2018-05-16T16:32:51.569Z,10.17
2018-05-16T16:35:19.808Z,10.53
2018-05-16T16:37:49.387Z,10.17
2018-05-16T16:40:17.574Z,9.93
2018-05-16T16:42:46.850Z,9.47
2018-05-16T16:45:15.086Z,8.93
2018-05-16T16:47:43.441Z,8.43
2018-05-16T16:50:12.361Z,7.60
2018-05-16T16:52:40.679Z,8.30
2018-05-16T16:55:08.789Z,9.07
2018-05-16T16:57:37.053Z,9.87
2018-05-16T17:00:07.760Z,9.27
2018-05-16T17:02:36.022Z,9.30
2018-05-16T17:05:04.128Z,9.03
2018-05-16T17:07:33.032Z,9.47
2018-05-16T17:10:01.928Z,8.93
2018-05-16T17:12:30.162Z,9.20
2018-05-16T17:14:58.889Z,9.30
2018-05-16T17:17:27.168Z,9.30
2018-05-16T17:19:58.005Z,8.67
2018-05-16T17:22:26.119Z,8.20
2018-05-16T17:24:55.000Z,9.50
2018-05-16T17:27:23.107Z,9.20
2018-05-16T17:29:51.251Z,9.10
2018-05-16T17:32:19.605Z,8.87
2018-05-16T17:34:47.727Z,8.47
2018-05-16T17:37:15.836Z,9.40
2018-05-16T17:39:44.080Z,9.00
2018-05-16T17:42:12.192Z,9.70
2018-05-16T17:44:40.405Z,9.13
2018-05-16T17:47:08.538Z,10.20
2018-05-16T17:49:36.962Z,10.03
2018-05-16T17:52:05.625Z,10.43
2018-05-16T17:54:33.802Z,10.63
2018-05-16T17:57:02.190Z,10.23
2018-05-16T17:59:30.425Z,10.37
2018-05-16T18:01:58.556Z,10.93
2018-05-16T18:04:28.358Z,11.30
2018-05-16T18:06:56.568Z,10.67
2018-05-16T18:09:25.530Z,11.33
2018-05-16T18:11:53.652Z,11.23
2018-05-16T18:14:33.768Z,11.47
2018-05-16T18:17:13.667Z,11.10
2018-05-16T18:19:41.796Z,10.70
2018-05-16T18:22:09.908Z,11.43
2018-05-16T18:24:38.217Z,12.33
2018-05-16T18:27:06.375Z,12.20
2018-05-16T18:29:35.529Z,11.57
2018-05-16T18:32:03.673Z,11.67
2018-05-16T18:34:31.807Z,11.07
2018-05-16T18:37:01.976Z,10.87
2018-05-16T18:39:30.989Z,10.90
2018-05-16T18:41:59.807Z,11.03
2018-05-16T18:44:28.124Z,11.80
2018-05-16T18:46:56.248Z,11.80
2018-05-16T18:49:24.409Z,11.03
2018-05-16T18:51:52.534Z,11.63
2018-05-16T18:54:21.376Z,11.37
2018-05-16T18:56:50.242Z,11.17
2018-05-16T18:59:19.215Z,11.60
2018-05-16T19:01:47.335Z,11.20
2018-05-16T19:04:15.458Z,11.00
2018-05-16T19:06:45.134Z,11.07
2018-05-16T19:09:13.259Z,11.50
2018-05-16T19:11:42.989Z,11.20
2018-05-16T19:14:11.982Z,11.55
2018-05-16T19:16:40.889Z,10.23
2018-05-16T19:19:09.047Z,10.30
2018-05-16T19:21:37.929Z,9.97
2018-05-16T19:24:06.943Z,10.03
2018-05-16T19:26:35.726Z,9.00
2018-05-16T19:29:04.586Z,8.70
2018-05-16T19:31:33.517Z,9.57
2018-05-16T19:34:01.708Z,9.30
2018-05-16T19:36:31.235Z,9.10
2018-05-16T19:38:59.374Z,9.47
2018-05-16T19:41:27.520Z,9.23
2018-05-16T19:43:56.435Z,8.80
2018-05-16T19:46:24.562Z,8.90
2018-05-16T19:48:52.674Z,8.83
2018-05-16T19:51:22.424Z,9.57
2018-05-16T19:53:51.046Z,9.30
2018-05-16T19:56:19.212Z,8.87
2018-05-16T19:58:50.145Z,8.63
2018-05-16T20:01:18.408Z,8.43
2018-05-16T20:03:47.650Z,8.00
2018-05-16T20:06:16.514Z,7.20
2018-05-16T20:08:46.133Z,8.40
2018-05-16T20:11:15.016Z,8.07
2018-05-16T20:13:43.180Z,7.50
2018-05-16T20:16:11.358Z,7.77
2018-05-16T20:18:39.448Z,7.00
2018-05-16T20:21:08.336Z,7.87
2018-05-16T20:23:37.010Z,7.67
2018-05-16T20:26:06.169Z,7.60
2018-05-16T20:28:35.546Z,7.60
2018-05-16T20:31:03.673Z,7.73
2018-05-16T20:33:33.345Z,9.07
2018-05-16T20:36:01.471Z,8.73
2018-05-16T20:38:30.606Z,9.03
2018-05-16T20:40:59.239Z,9.17
2018-05-16T20:43:28.879Z,9.83
2018-05-16T20:45:58.449Z,10.98
2018-05-16T20:48:26.661Z,10.23
2018-05-16T20:50:55.274Z,10.37
2018-05-16T20:53:23.430Z,9.83
2018-05-16T20:55:51.555Z,9.60
2018-05-16T20:58:19.766Z,10.27
2018-05-16T21:00:47.923Z,10.00
2018-05-16T21:03:17.008Z,10.60
2018-05-16T21:05:47.419Z,9.97
2018-05-16T21:08:34.812Z,10.47
2018-05-16T21:11:03.984Z,9.37
2018-05-16T21:13:31.707Z,9.00
2018-05-16T21:16:02.341Z,10.03
2018-05-16T21:18:29.952Z,9.10
2018-05-16T21:20:57.768Z,9.80
2018-05-16T21:23:26.942Z,10.07
2018-05-16T21:25:55.162Z,10.53
2018-05-16T21:28:24.129Z,10.10
2018-05-16T21:30:52.290Z,10.33
2018-05-16T21:33:20.513Z,10.53
2018-05-16T21:35:49.416Z,10.43
2018-05-16T21:38:19.013Z,11.20
2018-05-16T21:40:47.924Z,10.17
2018-05-16T21:43:16.246Z,10.47
2018-05-16T21:45:44.519Z,10.00
2018-05-16T21:48:12.729Z,11.20
2018-05-16T21:50:41.607Z,11.03
2018-05-16T21:53:10.510Z,10.03
2018-05-16T21:55:38.714Z,9.20
2018-05-16T21:58:06.875Z,9.70
2018-05-16T22:00:34.986Z,9.83
2018-05-16T22:03:04.099Z,8.90
2018-05-16T22:05:32.218Z,9.70
2018-05-16T22:08:00.331Z,9.70
2018-05-16T22:10:28.457Z,9.20
2018-05-16T22:12:57.577Z,8.87
2018-05-16T22:15:26.432Z,8.60
2018-05-16T22:17:55.304Z,8.40
2018-05-16T22:20:23.419Z,9.20
2018-05-16T22:22:51.552Z,8.07
2018-05-16T22:25:20.559Z,8.40
2018-05-16T22:27:49.535Z,8.50
2018-05-16T22:30:18.040Z,8.27
2018-05-16T22:32:54.004Z,8.60
2018-05-16T22:35:27.768Z,8.20
2018-05-16T22:38:03.103Z,8.33
2018-05-16T22:40:37.009Z,7.73
2018-05-16T22:43:04.636Z,8.00
2018-05-16T22:45:35.311Z,7.60
2018-05-16T22:48:04.953Z,7.73
2018-05-16T22:50:36.970Z,7.93
2018-05-16T22:53:05.182Z,8.30
2018-05-16T22:55:34.070Z,8.17
2018-05-16T22:58:02.948Z,7.63
2018-05-16T23:00:31.365Z,8.00
2018-05-16T23:02:59.633Z,7.20
2018-05-16T23:05:27.732Z,7.43
2018-05-16T23:07:57.231Z,7.40
2018-05-16T23:10:25.324Z,7.47
2018-05-16T23:12:53.439Z,6.60
2018-05-16T23:15:22.340Z,7.17
2018-05-16T23:17:50.956Z,7.43
2018-05-16T23:20:19.469Z,7.07
2018-05-16T23:22:47.657Z,7.60
2018-05-16T23:25:15.810Z,7.60
2018-05-16T23:27:43.920Z,7.20
2018-05-16T23:30:12.824Z,6.97
2018-05-16T23:32:41.705Z,7.40
2018-05-16T23:35:09.817Z,7.10
2018-05-16T23:37:38.776Z,7.10
2018-05-16T23:40:07.647Z,6.87
2018-05-16T23:42:35.762Z,7.20
2018-05-16T23:45:04.012Z,6.70
2018-05-16T23:47:32.895Z,7.43
2018-05-16T23:50:03.363Z,6.60
2018-05-16T23:52:31.508Z,6.20
2018-05-16T23:55:01.706Z,6.37
2018-05-16T23:57:29.834Z,6.63
2018-05-16T23:59:58.098Z,6.77
